Time;durP1;ratioP1;P1;durP2;ratioP2;P2;SDS_P1;SDS_P2;PMS_P1;PMS_P2;Temp;Humidity;BMP_temperature;BMP_pressure;BME280_temperature;BME280_humidity;BME280_pressure;Samples;Min_cycle;Max_cycle;Signal;HPM_P1;HPM_P2
2023/08/31 00:01:38;;;;;;;3.28;2.00;;;;;;;;;;5020202;28;20506;-67
2023/08/31 00:04:08;;;;;;;3.30;2.40;;;;;;;;;;5033493;28;20436;-67
2023/08/31 00:06:35;;;;;;;2.30;2.10;;;;;;;;;;5034681;28;20772;-67
2023/08/31 00:09:05;;;;;;;2.80;2.47;;;;;;;;;;5031774;28;20431;-67
2023/08/31 00:11:35;;;;;;;2.20;2.00;;;;;;;;;;5030426;28;20440;-67
2023/08/31 00:14:02;;;;;;;6.28;5.03;;;;;;;;;;5033531;28;20438;-68
2023/08/31 00:16:29;;;;;;;10.88;9.93;;;;;;;;;;5028541;28;20434;-67
2023/08/31 00:19:00;;;;;;;3.75;1.80;;;;;;;;;;5027602;28;20427;-67
2023/08/31 00:21:27;;;;;;;2.78;1.83;;;;;;;;;;5032997;28;20431;-67
2023/08/31 00:23:57;;;;;;;3.80;2.13;;;;;;;;;;5037755;28;20423;-68
2023/08/31 00:26:24;;;;;;;4.13;2.45;;;;;;;;;;5024714;28;20939;-67
2023/08/31 00:28:53;;;;;;;11.95;11.20;;;;;;;;;;5024894;28;20536;-67
2023/08/31 00:31:21;;;;;;;549.10;484.83;;;;;;;;;;5030694;28;20576;-67
2023/08/31 00:33:48;;;;;;;6.70;2.90;;;;;;;;;;5028117;28;20438;-67
2023/08/31 00:36:18;;;;;;;55.30;50.33;;;;;;;;;;5030350;28;20443;-67
2023/08/31 00:38:45;;;;;;;3.85;2.30;;;;;;;;;;5031334;28;20754;-67
2023/08/31 00:41:13;;;;;;;2.33;2.13;;;;;;;;;;5028493;28;20466;-67
2023/08/31 00:43:40;;;;;;;2.58;2.38;;;;;;;;;;5028705;28;20509;-67
2023/08/31 00:46:07;;;;;;;5.65;2.65;;;;;;;;;;5026254;28;20430;-67
2023/08/31 00:48:34;;;;;;;2.53;2.35;;;;;;;;;;5035521;28;20441;-67
2023/08/31 00:51:02;;;;;;;16.42;15.32;;;;;;;;;;5028100;28;20431;-67
2023/08/31 00:53:29;;;;;;;3.28;2.97;;;;;;;;;;5033713;28;20753;-67
2023/08/31 00:55:56;;;;;;;4.35;3.95;;;;;;;;;;5024478;28;20548;-67
2023/08/31 00:58:25;;;;;;;3.42;2.70;;;;;;;;;;5032066;28;20426;-67
2023/08/31 01:01:15;;;;;;;4.35;2.78;;;;;;;;;;5036226;28;20827;-67
2023/08/31 01:04:02;;;;;;;3.33;2.67;;;;;;;;;;5033025;28;21030;-67
2023/08/31 01:06:44;;;;;;;13.47;12.27;;;;;;;;;;5027190;28;20435;-67
2023/08/31 01:09:20;;;;;;;3.17;2.88;;;;;;;;;;5022856;28;20441;-67
2023/08/31 01:11:54;;;;;;;5.13;3.30;;;;;;;;;;5032911;28;20439;-68
2023/08/31 01:14:24;;;;;;;4.73;3.10;;;;;;;;;;5031284;28;20442;-68
2023/08/31 01:16:53;;;;;;;6.22;3.58;;;;;;;;;;5022786;28;20457;-68
2023/08/31 01:19:32;;;;;;;6.78;5.45;;;;;;;;;;5027215;28;20441;-68
2023/08/31 01:22:04;;;;;;;4.85;3.75;;;;;;;;;;5033738;28;20528;-68
2023/08/31 01:24:31;;;;;;;15.82;13.70;;;;;;;;;;5035627;28;20422;-68
2023/08/31 01:26:59;;;;;;;6.95;3.65;;;;;;;;;;5025972;28;20454;-68
2023/08/31 01:29:29;;;;;;;5.37;4.10;;;;;;;;;;5025957;28;20443;-67
2023/08/31 01:31:56;;;;;;;8.20;4.65;;;;;;;;;;5030773;28;20439;-67
2023/08/31 01:34:24;;;;;;;6.83;4.23;;;;;;;;;;5030219;28;20463;-68
2023/08/31 01:36:56;;;;;;;6.82;4.40;;;;;;;;;;5026578;28;20434;-67
2023/08/31 01:39:34;;;;;;;5.72;4.15;;;;;;;;;;5047336;28;20507;-67
2023/08/31 01:42:04;;;;;;;7.22;4.38;;;;;;;;;;5027571;28;20431;-67
2023/08/31 01:44:33;;;;;;;7.60;3.97;;;;;;;;;;5027627;28;20425;-67
2023/08/31 01:47:05;;;;;;;5.47;3.63;;;;;;;;;;5027179;28;20443;-66
2023/08/31 01:49:39;;;;;;;6.03;3.50;;;;;;;;;;5026252;28;20441;-66
2023/08/31 01:52:07;;;;;;;4.55;3.40;;;;;;;;;;5024330;28;20459;-66
2023/08/31 01:54:34;;;;;;;5.80;3.77;;;;;;;;;;5027673;28;20918;-66
2023/08/31 01:57:02;;;;;;;4.55;3.20;;;;;;;;;;5024478;28;20474;-66
2023/08/31 01:59:30;;;;;;;3.45;3.15;;;;;;;;;;5028463;28;20956;-66
2023/08/31 02:02:03;;;;;;;4.15;2.95;;;;;;;;;;5004627;28;21326;-66
2023/08/31 02:04:31;;;;;;;3.08;2.78;;;;;;;;;;5026955;28;20493;-67
2023/08/31 02:06:58;;;;;;;7.28;3.38;;;;;;;;;;5025874;28;20522;-67
2023/08/31 02:09:28;;;;;;;3.90;3.10;;;;;;;;;;5033306;28;20540;-66
2023/08/31 02:12:03;;;;;;;5.90;3.38;;;;;;;;;;5032355;28;20917;-66
2023/08/31 02:14:30;;;;;;;5.22;3.30;;;;;;;;;;5043069;28;20434;-66
2023/08/31 02:16:57;;;;;;;4.20;3.08;;;;;;;;;;5036867;28;20433;-67
2023/08/31 02:19:25;;;;;;;6.18;3.10;;;;;;;;;;5026726;28;20466;-66
2023/08/31 02:21:52;;;;;;;3.20;2.92;;;;;;;;;;5030328;28;20435;-66
2023/08/31 02:24:20;;;;;;;4.03;3.03;;;;;;;;;;5029949;28;20461;-66
2023/08/31 02:26:49;;;;;;;3.28;3.00;;;;;;;;;;5030651;28;20909;-66
2023/08/31 02:29:16;;;;;;;6.10;3.53;;;;;;;;;;5027472;28;20441;-66
2023/08/31 02:31:46;;;;;;;4.20;3.25;;;;;;;;;;5026119;28;20989;-66
2023/08/31 02:34:13;;;;;;;4.97;3.40;;;;;;;;;;5026241;28;20446;-66
2023/08/31 02:36:40;;;;;;;6.03;3.58;;;;;;;;;;5024748;28;20431;-66
2023/08/31 02:39:14;;;;;;;3.78;3.45;;;;;;;;;;5024833;28;20859;-66
2023/08/31 02:41:41;;;;;;;4.25;3.22;;;;;;;;;;5025348;28;20435;-66
2023/08/31 02:44:11;;;;;;;5.15;3.28;;;;;;;;;;5026445;28;20426;-66
2023/08/31 02:46:38;;;;;;;3.73;3.00;;;;;;;;;;5025410;28;20542;-66
2023/08/31 02:49:06;;;;;;;4.32;3.22;;;;;;;;;;5023305;28;20953;-66
2023/08/31 02:51:35;;;;;;;4.63;3.38;;;;;;;;;;5032981;28;20444;-66
2023/08/31 02:54:03;;;;;;;4.68;3.47;;;;;;;;;;5025627;28;21123;-66
2023/08/31 02:56:32;;;;;;;5.53;3.38;;;;;;;;;;5024644;28;20442;-66
2023/08/31 02:59:00;;;;;;;4.60;3.88;;;;;;;;;;5025328;28;20426;-67
2023/08/31 03:01:27;;;;;;;4.07;3.65;;;;;;;;;;5021942;28;20510;-66
2023/08/31 03:03:57;;;;;;;4.75;3.42;;;;;;;;;;5023979;28;20436;-66
2023/08/31 03:06:24;;;;;;;5.03;3.65;;;;;;;;;;5029383;28;20466;-66
2023/08/31 03:08:51;;;;;;;3.80;3.50;;;;;;;;;;5026391;28;20840;-66
2023/08/31 03:11:18;;;;;;;4.97;3.53;;;;;;;;;;5030852;28;20460;-67
2023/08/31 03:13:45;;;;;;;3.80;3.50;;;;;;;;;;5025701;28;20431;-66
2023/08/31 03:16:13;;;;;;;4.47;3.85;;;;;;;;;;5026249;28;20439;-67
2023/08/31 03:18:40;;;;;;;5.28;4.07;;;;;;;;;;5026226;28;20518;-66
2023/08/31 03:21:07;;;;;;;4.05;3.75;;;;;;;;;;5028857;28;20483;-66
2023/08/31 03:23:35;;;;;;;4.50;3.80;;;;;;;;;;5028511;28;20789;-66
2023/08/31 03:26:07;;;;;;;4.67;4.03;;;;;;;;;;5027776;28;20454;-66
2023/08/31 03:28:34;;;;;;;6.10;4.30;;;;;;;;;;5029133;28;20437;-66
2023/08/31 03:31:01;;;;;;;5.78;4.47;;;;;;;;;;5022939;28;20512;-66
2023/08/31 03:33:31;;;;;;;7.47;4.68;;;;;;;;;;5029515;28;21186;-66
2023/08/31 03:36:04;;;;;;;4.50;4.00;;;;;;;;;;5029782;28;20528;-66
2023/08/31 03:38:32;;;;;;;7.63;3.97;;;;;;;;;;5026302;28;20435;-67
2023/08/31 03:40:59;;;;;;;4.53;4.03;;;;;;;;;;5025404;28;20441;-66
2023/08/31 03:43:26;;;;;;;5.68;3.97;;;;;;;;;;5028119;28;21008;-66
2023/08/31 03:45:57;;;;;;;4.97;4.47;;;;;;;;;;5050011;28;20438;-66
2023/08/31 03:48:26;;;;;;;6.00;4.03;;;;;;;;;;5020520;28;20492;-66
2023/08/31 03:50:54;;;;;;;6.10;4.50;;;;;;;;;;5027109;28;20442;-66
2023/08/31 03:53:21;;;;;;;5.88;4.32;;;;;;;;;;5039694;28;20990;-67
2023/08/31 03:55:48;;;;;;;6.97;4.43;;;;;;;;;;5032095;28;21017;-66
2023/08/31 03:58:16;;;;;;;4.50;4.10;;;;;;;;;;5050098;28;20459;-66
2023/08/31 04:00:44;;;;;;;8.20;4.60;;;;;;;;;;5030209;28;20821;-66
2023/08/31 04:03:14;;;;;;;4.90;4.20;;;;;;;;;;5042379;28;20422;-66
2023/08/31 04:05:42;;;;;;;7.60;4.80;;;;;;;;;;5028475;28;20458;-66
2023/08/31 04:08:09;;;;;;;4.20;3.83;;;;;;;;;;5029887;28;20441;-66
2023/08/31 04:10:36;;;;;;;6.05;4.05;;;;;;;;;;5030077;28;20518;-66
2023/08/31 04:13:03;;;;;;;6.70;3.92;;;;;;;;;;5006665;28;20549;-66
2023/08/31 04:15:31;;;;;;;6.47;4.90;;;;;;;;;;5032592;28;20516;-66
2023/08/31 04:17:58;;;;;;;7.70;5.05;;;;;;;;;;5029699;28;20518;-66
2023/08/31 04:20:26;;;;;;;8.90;6.00;;;;;;;;;;5028550;28;20477;-66
2023/08/31 04:22:53;;;;;;;8.02;5.53;;;;;;;;;;5025847;28;20516;-66
2023/08/31 04:25:20;;;;;;;7.40;5.40;;;;;;;;;;5029567;28;20500;-67
2023/08/31 04:27:47;;;;;;;7.85;5.15;;;;;;;;;;5032325;28;20451;-67
2023/08/31 04:30:15;;;;;;;7.65;5.03;;;;;;;;;;5031786;28;20429;-66
2023/08/31 04:32:46;;;;;;;6.60;4.70;;;;;;;;;;5026231;28;20437;-66
2023/08/31 04:35:16;;;;;;;8.35;4.80;;;;;;;;;;5028099;28;20431;-66
2023/08/31 04:37:46;;;;;;;7.13;5.10;;;;;;;;;;5031061;28;20435;-67
2023/08/31 04:40:17;;;;;;;10.77;5.47;;;;;;;;;;5025651;28;20427;-66
2023/08/31 04:42:45;;;;;;;6.53;5.03;;;;;;;;;;5042616;28;20526;-67
2023/08/31 04:45:12;;;;;;;9.95;5.18;;;;;;;;;;5030965;28;20495;-67
2023/08/31 04:47:39;;;;;;;7.07;4.82;;;;;;;;;;5030947;28;20440;-67
2023/08/31 04:50:07;;;;;;;8.25;5.20;;;;;;;;;;5037656;28;20541;-67
2023/08/31 04:52:34;;;;;;;10.00;5.32;;;;;;;;;;5027622;28;20943;-67
2023/08/31 04:55:07;;;;;;;7.53;5.00;;;;;;;;;;5024568;28;21185;-66
2023/08/31 04:57:34;;;;;;;5.68;4.47;;;;;;;;;;5026814;28;20470;-66
2023/08/31 05:00:03;;;;;;;6.60;5.03;;;;;;;;;;5029955;28;20446;-66
2023/08/31 05:02:30;;;;;;;6.68;4.75;;;;;;;;;;5015068;28;20434;-66
2023/08/31 05:04:57;;;;;;;8.75;4.57;;;;;;;;;;5023938;28;20431;-67
2023/08/31 05:07:24;;;;;;;5.95;4.40;;;;;;;;;;5026435;28;20434;-67
2023/08/31 05:09:56;;;;;;;5.83;4.57;;;;;;;;;;5021518;28;20478;-66
2023/08/31 05:12:23;;;;;;;6.55;4.30;;;;;;;;;;5022330;28;20961;-67
2023/08/31 05:14:50;;;;;;;6.55;4.35;;;;;;;;;;5023306;28;20540;-67
2023/08/31 05:17:17;;;;;;;4.85;4.15;;;;;;;;;;5026351;28;20435;-67
2023/08/31 05:19:45;;;;;;;7.03;4.85;;;;;;;;;;5017995;28;20441;-66
2023/08/31 05:22:12;;;;;;;7.40;4.90;;;;;;;;;;5024701;28;20458;-66
2023/08/31 05:24:40;;;;;;;5.97;4.78;;;;;;;;;;5025169;28;20510;-66
2023/08/31 05:27:07;;;;;;;6.00;4.70;;;;;;;;;;5023781;28;20786;-66
2023/08/31 05:29:34;;;;;;;6.97;4.93;;;;;;;;;;5027577;28;20437;-66
2023/08/31 05:32:02;;;;;;;7.90;4.97;;;;;;;;;;5026558;28;20435;-66
2023/08/31 05:34:37;;;;;;;5.75;5.15;;;;;;;;;;5025983;28;21133;-66
2023/08/31 05:37:06;;;;;;;5.30;4.80;;;;;;;;;;5028725;28;20955;-66
2023/08/31 05:39:34;;;;;;;7.15;4.88;;;;;;;;;;5030499;28;20432;-66
2023/08/31 05:42:01;;;;;;;6.30;4.90;;;;;;;;;;5024441;28;20510;-66
2023/08/31 05:44:33;;;;;;;8.18;5.60;;;;;;;;;;5024176;28;20435;-66
2023/08/31 05:47:00;;;;;;;7.32;5.10;;;;;;;;;;5023316;28;20532;-66
2023/08/31 05:49:27;;;;;;;8.90;5.32;;;;;;;;;;5028800;28;20445;-67
2023/08/31 05:51:55;;;;;;;6.45;4.88;;;;;;;;;;5025996;28;20430;-67
2023/08/31 05:54:22;;;;;;;7.43;5.05;;;;;;;;;;5022212;28;20445;-67
2023/08/31 05:56:49;;;;;;;6.45;5.10;;;;;;;;;;5026900;28;20435;-66
2023/08/31 05:59:16;;;;;;;5.60;4.50;;;;;;;;;;5003190;28;20440;-67
2023/08/31 06:01:47;;;;;;;6.78;4.47;;;;;;;;;;5022432;28;20427;-67
2023/08/31 06:04:14;;;;;;;7.53;4.53;;;;;;;;;;5024101;28;20442;-66
2023/08/31 06:06:41;;;;;;;4.68;4.20;;;;;;;;;;5039089;28;20449;-67
2023/08/31 06:09:08;;;;;;;3.78;3.20;;;;;;;;;;5019344;28;21121;-67
2023/08/31 06:11:36;;;;;;;3.92;2.95;;;;;;;;;;5012767;28;20524;-67
2023/08/31 06:14:03;;;;;;;3.08;2.78;;;;;;;;;;5023796;28;20522;-67
2023/08/31 06:16:30;;;;;;;2.72;2.35;;;;;;;;;;5023428;28;20541;-67
2023/08/31 06:18:58;;;;;;;4.70;2.60;;;;;;;;;;5023910;28;20433;-67
2023/08/31 06:21:28;;;;;;;3.67;3.00;;;;;;;;;;5019423;28;20941;-65
2023/08/31 06:23:58;;;;;;;3.17;2.78;;;;;;;;;;5040401;28;20421;-65
2023/08/31 06:26:25;;;;;;;3.17;2.00;;;;;;;;;;5027628;28;21220;-65
2023/08/31 06:28:55;;;;;;;2.63;1.92;;;;;;;;;;5022118;28;21415;-65
2023/08/31 06:31:22;;;;;;;3.42;1.65;;;;;;;;;;5019145;28;21371;-65
2023/08/31 06:33:49;;;;;;;3.50;1.70;;;;;;;;;;5016584;28;20508;-65
2023/08/31 06:36:16;;;;;;;3.60;1.75;;;;;;;;;;5019591;28;20427;-65
2023/08/31 06:38:44;;;;;;;3.77;1.80;;;;;;;;;;5022657;28;20467;-65
2023/08/31 06:41:11;;;;;;;3.30;1.73;;;;;;;;;;5019230;28;20435;-65
2023/08/31 06:43:41;;;;;;;2.35;1.80;;;;;;;;;;5019945;28;20953;-65
2023/08/31 06:46:08;;;;;;;3.47;1.70;;;;;;;;;;5016921;28;20435;-65
2023/08/31 06:48:50;;;;;;;2.75;1.65;;;;;;;;;;5013867;28;20975;-65
2023/08/31 06:51:17;;;;;;;4.55;1.67;;;;;;;;;;5003215;28;21317;-64
2023/08/31 06:53:45;;;;;;;2.40;1.67;;;;;;;;;;5041904;28;20464;-65
2023/08/31 06:56:12;;;;;;;3.87;2.00;;;;;;;;;;5022002;28;20517;-65
2023/08/31 06:58:39;;;;;;;2.23;1.77;;;;;;;;;;5019747;28;20466;-64
2023/08/31 07:01:06;;;;;;;2.70;1.80;;;;;;;;;;5021680;28;20528;-64
2023/08/31 07:03:34;;;;;;;2.93;1.90;;;;;;;;;;5026451;28;20483;-64
2023/08/31 07:06:04;;;;;;;2.20;2.00;;;;;;;;;;5024324;28;20500;-64
2023/08/31 07:08:32;;;;;;;4.18;2.03;;;;;;;;;;5022983;28;20901;-64
2023/08/31 07:10:59;;;;;;;3.42;2.10;;;;;;;;;;5026211;28;20526;-64
2023/08/31 07:13:26;;;;;;;3.72;2.03;;;;;;;;;;5024279;28;20446;-64
2023/08/31 07:15:54;;;;;;;2.35;1.67;;;;;;;;;;5025376;28;20470;-64
2023/08/31 07:18:21;;;;;;;5.17;1.93;;;;;;;;;;5025715;28;20431;-64
2023/08/31 07:20:50;;;;;;;2.38;1.50;;;;;;;;;;5004397;28;20439;-64
2023/08/31 07:23:18;;;;;;;4.13;1.60;;;;;;;;;;5025267;28;21534;-64
2023/08/31 07:25:48;;;;;;;5.93;1.80;;;;;;;;;;5030829;28;20540;-64
2023/08/31 07:28:18;;;;;;;1.90;1.42;;;;;;;;;;5027506;28;20470;-64
2023/08/31 07:30:45;;;;;;;3.00;1.77;;;;;;;;;;5028837;28;20431;-64
2023/08/31 07:33:13;;;;;;;2.40;1.50;;;;;;;;;;5030849;28;20433;-64
2023/08/31 07:35:57;;;;;;;4.50;1.70;;;;;;;;;;5007107;28;20434;-64
2023/08/31 07:38:26;;;;;;;2.30;1.40;;;;;;;;;;5022592;28;20476;-64
2023/08/31 07:40:53;;;;;;;4.80;1.50;;;;;;;;;;5042347;28;20439;-64
2023/08/31 07:43:20;;;;;;;2.00;1.52;;;;;;;;;;5027032;28;20513;-63
2023/08/31 07:45:47;;;;;;;3.08;1.40;;;;;;;;;;5030546;28;20457;-64
2023/08/31 07:48:15;;;;;;;4.40;1.60;;;;;;;;;;5022672;28;20430;-63
2023/08/31 07:50:42;;;;;;;2.45;1.70;;;;;;;;;;5025113;28;20466;-64
2023/08/31 07:53:09;;;;;;;5.40;1.60;;;;;;;;;;5024800;28;20536;-63
2023/08/31 07:55:37;;;;;;;3.17;1.48;;;;;;;;;;5028708;28;20467;-64
2023/08/31 07:58:04;;;;;;;2.85;1.33;;;;;;;;;;5028198;28;20442;-64
2023/08/31 08:00:31;;;;;;;2.60;1.30;;;;;;;;;;5049673;28;20493;-63
2023/08/31 08:02:59;;;;;;;4.60;1.23;;;;;;;;;;5033358;28;20900;-64
2023/08/31 08:05:32;;;;;;;2.58;1.20;;;;;;;;;;5027871;28;20435;-63
2023/08/31 08:08:03;;;;;;;2.50;1.20;;;;;;;;;;5027584;28;20479;-64
2023/08/31 08:10:33;;;;;;;2.75;1.10;;;;;;;;;;5028070;28;20461;-63
2023/08/31 08:13:00;;;;;;;4.60;1.40;;;;;;;;;;5026628;28;20457;-63
2023/08/31 08:15:27;;;;;;;3.13;1.50;;;;;;;;;;5026593;28;20442;-63
2023/08/31 08:17:56;;;;;;;3.70;1.40;;;;;;;;;;5026651;28;20431;-63
2023/08/31 08:20:23;;;;;;;2.45;1.25;;;;;;;;;;5028228;28;20618;-64
2023/08/31 08:22:54;;;;;;;2.97;1.27;;;;;;;;;;5027229;28;20438;-64
2023/08/31 08:25:21;;;;;;;2.42;1.30;;;;;;;;;;5026000;28;20426;-63
2023/08/31 08:27:49;;;;;;;2.35;1.13;;;;;;;;;;5018330;28;20461;-64
2023/08/31 08:30:16;;;;;;;2.00;1.30;;;;;;;;;;5024146;28;20486;-64
2023/08/31 08:32:43;;;;;;;1.80;1.20;;;;;;;;;;5024950;28;20517;-64
2023/08/31 08:35:11;;;;;;;1.75;1.08;;;;;;;;;;5024337;28;20438;-64
2023/08/31 08:37:38;;;;;;;3.23;1.43;;;;;;;;;;5031682;28;20809;-63
2023/08/31 08:40:05;;;;;;;2.38;1.17;;;;;;;;;;5025230;28;20998;-64
2023/08/31 08:42:33;;;;;;;1.77;1.20;;;;;;;;;;5021205;28;21104;-64
2023/08/31 08:45:01;;;;;;;2.40;1.17;;;;;;;;;;5030970;28;20508;-63
2023/08/31 08:47:29;;;;;;;2.28;1.00;;;;;;;;;;5026400;28;20851;-64
2023/08/31 08:50:02;;;;;;;2.00;1.07;;;;;;;;;;5028896;28;20526;-64
2023/08/31 08:52:29;;;;;;;2.63;1.20;;;;;;;;;;5026768;28;20433;-63
2023/08/31 08:54:57;;;;;;;2.67;1.42;;;;;;;;;;5024895;28;20474;-64
2023/08/31 08:57:24;;;;;;;3.20;1.30;;;;;;;;;;5035687;28;20928;-63
2023/08/31 08:59:51;;;;;;;2.00;1.20;;;;;;;;;;5030662;28;21081;-63
2023/08/31 09:02:18;;;;;;;2.38;1.23;;;;;;;;;;5032049;28;20431;-64
2023/08/31 09:04:46;;;;;;;1.90;1.65;;;;;;;;;;5036099;28;21081;-64
2023/08/31 09:07:13;;;;;;;2.55;1.33;;;;;;;;;;5028919;28;20458;-64
2023/08/31 09:09:49;;;;;;;3.50;1.25;;;;;;;;;;5019944;28;20438;-64
2023/08/31 09:12:16;;;;;;;2.15;1.10;;;;;;;;;;5025043;28;20431;-63
2023/08/31 09:14:43;;;;;;;2.57;1.10;;;;;;;;;;5024950;28;20473;-63
2023/08/31 09:17:12;;;;;;;4.72;1.20;;;;;;;;;;5020370;28;20493;-63
2023/08/31 09:19:39;;;;;;;2.13;1.10;;;;;;;;;;5026535;28;20808;-64
2023/08/31 09:22:06;;;;;;;1.20;1.10;;;;;;;;;;5024747;28;20465;-64
2023/08/31 09:24:40;;;;;;;3.45;1.15;;;;;;;;;;5024596;28;20436;-63
2023/08/31 09:27:08;;;;;;;4.30;1.10;;;;;;;;;;5026669;28;20427;-63
2023/08/31 09:29:38;;;;;;;2.08;1.15;;;;;;;;;;5024312;28;20458;-63
2023/08/31 09:32:05;;;;;;;4.57;1.90;;;;;;;;;;5026612;28;20516;-64
2023/08/31 09:34:36;;;;;;;3.40;1.52;;;;;;;;;;5018164;28;20517;-63
2023/08/31 09:37:09;;;;;;;3.05;1.40;;;;;;;;;;5025643;28;20431;-64
2023/08/31 09:39:40;;;;;;;1.65;1.00;;;;;;;;;;5025952;28;21113;-63
2023/08/31 09:42:07;;;;;;;2.75;1.05;;;;;;;;;;5025056;28;20509;-62
2023/08/31 09:44:37;;;;;;;3.15;1.00;;;;;;;;;;5024077;28;20430;-62
2023/08/31 09:47:05;;;;;;;3.35;1.33;;;;;;;;;;5030344;28;20453;-62
2023/08/31 09:49:33;;;;;;;2.40;1.23;;;;;;;;;;5040469;28;20859;-63
2023/08/31 09:52:03;;;;;;;1.92;1.20;;;;;;;;;;5026590;28;20444;-62
2023/08/31 09:54:31;;;;;;;2.50;1.20;;;;;;;;;;5029072;28;20429;-63
2023/08/31 09:57:00;;;;;;;1.98;1.17;;;;;;;;;;5025766;28;21210;-62
2023/08/31 09:59:28;;;;;;;2.35;1.40;;;;;;;;;;5029975;28;20525;-62
2023/08/31 10:01:56;;;;;;;2.65;0.90;;;;;;;;;;5055128;28;20438;-62
2023/08/31 10:04:24;;;;;;;1.73;1.13;;;;;;;;;;5024237;28;20489;-62
2023/08/31 10:06:52;;;;;;;3.75;1.10;;;;;;;;;;5025507;28;20865;-58
2023/08/31 10:09:19;;;;;;;1.20;1.10;;;;;;;;;;5023295;28;20466;-58
2023/08/31 10:11:47;;;;;;;2.20;1.15;;;;;;;;;;5018281;28;20998;-58
2023/08/31 10:14:14;;;;;;;1.52;1.10;;;;;;;;;;5016596;28;20434;-58
2023/08/31 10:16:41;;;;;;;1.25;1.10;;;;;;;;;;5028273;28;20440;-58
2023/08/31 10:19:09;;;;;;;1.55;1.10;;;;;;;;;;5021932;28;20432;-58
2023/08/31 10:21:37;;;;;;;2.30;1.10;;;;;;;;;;5025378;28;20540;-58
2023/08/31 10:24:04;;;;;;;1.40;1.20;;;;;;;;;;5020969;28;20439;-59
2023/08/31 10:26:32;;;;;;;3.17;1.10;;;;;;;;;;5035951;28;21053;-58
2023/08/31 10:29:03;;;;;;;1.33;1.00;;;;;;;;;;5030720;28;20466;-58
2023/08/31 10:31:34;;;;;;;2.67;1.07;;;;;;;;;;5038183;28;20439;-59
2023/08/31 10:34:05;;;;;;;1.02;1.00;;;;;;;;;;5027935;28;20768;-60
2023/08/31 10:36:36;;;;;;;1.50;0.90;;;;;;;;;;5027190;28;20434;-62
2023/08/31 10:39:12;;;;;;;1.48;1.10;;;;;;;;;;5025733;28;20441;-62
2023/08/31 10:41:39;;;;;;;1.38;1.10;;;;;;;;;;5025559;28;20514;-62
2023/08/31 10:44:20;;;;;;;0.90;0.80;;;;;;;;;;5030319;28;21190;-63
2023/08/31 10:46:47;;;;;;;2.65;1.10;;;;;;;;;;5026179;28;20513;-62
2023/08/31 10:49:15;;;;;;;1.25;0.95;;;;;;;;;;5027174;28;20447;-62
2023/08/31 10:51:59;;;;;;;1.92;0.90;;;;;;;;;;5024939;28;20462;-62
2023/08/31 10:54:27;;;;;;;2.15;1.23;;;;;;;;;;5035989;28;20439;-62
2023/08/31 10:57:18;;;;;;;4.57;2.50;;;;;;;;;;5031688;28;20523;-62
2023/08/31 10:59:45;;;;;;;1.90;1.10;;;;;;;;;;5021773;28;20437;-62
2023/08/31 11:02:32;;;;;;;1.40;0.82;;;;;;;;;;5032196;28;21033;-62
2023/08/31 11:05:05;;;;;;;0.82;0.70;;;;;;;;;;5028463;28;20528;-62
2023/08/31 11:07:34;;;;;;;2.00;0.90;;;;;;;;;;5023978;28;20470;-62
2023/08/31 11:10:13;;;;;;;1.37;0.87;;;;;;;;;;5028784;28;20448;-62
2023/08/31 11:12:41;;;;;;;2.00;0.87;;;;;;;;;;5026513;28;20433;-62
2023/08/31 11:15:11;;;;;;;2.00;0.93;;;;;;;;;;5030545;28;20435;-62
2023/08/31 11:17:40;;;;;;;2.78;1.08;;;;;;;;;;5033648;28;20438;-62
2023/08/31 11:20:09;;;;;;;1.52;1.00;;;;;;;;;;5028907;28;20441;-62
2023/08/31 11:22:40;;;;;;;1.10;0.88;;;;;;;;;;5032034;28;20421;-62
2023/08/31 11:25:08;;;;;;;2.17;1.00;;;;;;;;;;5027055;28;20909;-63
2023/08/31 11:27:35;;;;;;;1.23;0.85;;;;;;;;;;5027715;28;20453;-62
2023/08/31 11:30:03;;;;;;;0.90;0.90;;;;;;;;;;5026362;28;20447;-62
2023/08/31 11:32:30;;;;;;;2.17;1.00;;;;;;;;;;5037789;28;21117;-62
2023/08/31 11:34:57;;;;;;;1.67;1.10;;;;;;;;;;5043107;28;20436;-62
2023/08/31 11:37:24;;;;;;;1.00;1.00;;;;;;;;;;5026332;28;20431;-62
2023/08/31 11:39:52;;;;;;;2.30;1.20;;;;;;;;;;5026080;28;20431;-62
2023/08/31 11:42:22;;;;;;;1.70;1.00;;;;;;;;;;5040311;28;20430;-62
2023/08/31 11:44:50;;;;;;;0.98;0.82;;;;;;;;;;5024664;28;20470;-62
2023/08/31 11:47:18;;;;;;;1.60;1.00;;;;;;;;;;5026483;28;20528;-62
2023/08/31 11:49:46;;;;;;;1.40;1.10;;;;;;;;;;5023949;28;20448;-62
2023/08/31 11:52:13;;;;;;;1.80;1.00;;;;;;;;;;5020708;28;20439;-62
2023/08/31 11:54:42;;;;;;;1.83;1.00;;;;;;;;;;5017420;28;20437;-62
2023/08/31 11:57:10;;;;;;;1.83;1.15;;;;;;;;;;5024646;28;20857;-62
2023/08/31 11:59:38;;;;;;;1.10;1.00;;;;;;;;;;5023921;28;20908;-62
2023/08/31 12:02:07;;;;;;;3.17;1.15;;;;;;;;;;5027523;28;20438;-62
2023/08/31 12:04:45;;;;;;;1.15;1.05;;;;;;;;;;5043780;28;20431;-62
2023/08/31 12:07:16;;;;;;;1.42;1.08;;;;;;;;;;5023132;28;20434;-62
2023/08/31 12:09:44;;;;;;;2.13;1.00;;;;;;;;;;5024636;28;20466;-62
2023/08/31 12:12:13;;;;;;;2.15;1.00;;;;;;;;;;5041725;28;20508;-62
2023/08/31 12:14:41;;;;;;;1.50;1.00;;;;;;;;;;5063101;28;20526;-62
2023/08/31 12:17:09;;;;;;;2.30;1.08;;;;;;;;;;5028068;28;20435;-62
2023/08/31 12:19:45;;;;;;;1.38;0.90;;;;;;;;;;5031670;28;20545;-62
2023/08/31 12:22:12;;;;;;;1.20;0.93;;;;;;;;;;5026482;28;20446;-62
2023/08/31 12:24:40;;;;;;;2.37;1.10;;;;;;;;;;5026111;28;20437;-62
2023/08/31 12:27:08;;;;;;;1.23;1.02;;;;;;;;;;5027832;28;20449;-62
2023/08/31 12:29:36;;;;;;;1.20;0.90;;;;;;;;;;5024341;28;20438;-62
2023/08/31 12:32:03;;;;;;;1.15;1.02;;;;;;;;;;5027000;28;20437;-62
2023/08/31 12:34:33;;;;;;;1.50;0.90;;;;;;;;;;5025955;28;20506;-62
2023/08/31 12:37:02;;;;;;;2.35;1.10;;;;;;;;;;5027314;28;20790;-62
2023/08/31 12:39:29;;;;;;;2.50;0.90;;;;;;;;;;5025878;28;20430;-62
2023/08/31 12:41:56;;;;;;;1.92;1.23;;;;;;;;;;5027614;28;20505;-62
2023/08/31 12:44:42;;;;;;;1.30;1.10;;;;;;;;;;5031346;28;20868;-62
2023/08/31 12:47:09;;;;;;;1.83;1.10;;;;;;;;;;5029861;28;20483;-63
2023/08/31 12:49:37;;;;;;;1.90;1.13;;;;;;;;;;5029003;28;20439;-62
2023/08/31 12:52:07;;;;;;;1.00;1.00;;;;;;;;;;5027577;28;20469;-62
2023/08/31 12:54:34;;;;;;;1.70;1.20;;;;;;;;;;5029013;28;20441;-62
2023/08/31 12:57:01;;;;;;;1.40;0.90;;;;;;;;;;5047449;28;20439;-62
2023/08/31 12:59:28;;;;;;;1.92;1.10;;;;;;;;;;5032163;28;20438;-62
2023/08/31 13:01:55;;;;;;;1.60;1.10;;;;;;;;;;5044011;28;20418;-62
2023/08/31 13:04:28;;;;;;;1.40;1.10;;;;;;;;;;5035721;28;20436;-62
2023/08/31 13:06:55;;;;;;;1.23;1.20;;;;;;;;;;5026411;28;20520;-62
2023/08/31 13:09:23;;;;;;;1.45;1.13;;;;;;;;;;5024777;28;20513;-62
2023/08/31 13:11:50;;;;;;;2.40;1.30;;;;;;;;;;5023577;28;20546;-62
2023/08/31 13:14:17;;;;;;;2.90;1.20;;;;;;;;;;5028869;28;20516;-62
2023/08/31 13:16:45;;;;;;;1.45;1.10;;;;;;;;;;5032111;28;20921;-62
2023/08/31 13:19:12;;;;;;;1.85;1.02;;;;;;;;;;5028967;28;20500;-62
2023/08/31 13:21:42;;;;;;;1.27;1.10;;;;;;;;;;5025728;28;20435;-62
2023/08/31 13:24:09;;;;;;;2.33;1.33;;;;;;;;;;5027862;28;20518;-62
2023/08/31 13:26:36;;;;;;;2.00;1.30;;;;;;;;;;5034443;28;20419;-62
2023/08/31 13:29:04;;;;;;;2.53;1.30;;;;;;;;;;5034628;28;21134;-62
2023/08/31 13:31:33;;;;;;;1.00;1.00;;;;;;;;;;5032090;28;20466;-62
2023/08/31 13:34:00;;;;;;;2.75;1.30;;;;;;;;;;5029729;28;20435;-62
2023/08/31 13:36:27;;;;;;;2.25;1.20;;;;;;;;;;5042452;28;20510;-62
2023/08/31 13:38:57;;;;;;;2.20;1.40;;;;;;;;;;5022754;28;20980;-61
2023/08/31 13:41:24;;;;;;;2.15;1.40;;;;;;;;;;5030792;28;20431;-61
2023/08/31 13:43:53;;;;;;;1.88;1.15;;;;;;;;;;5025171;28;21150;-61
2023/08/31 13:46:20;;;;;;;3.50;1.20;;;;;;;;;;5032350;28;20506;-61
2023/08/31 13:48:48;;;;;;;3.15;1.50;;;;;;;;;;5030968;28;20447;-61
2023/08/31 13:51:15;;;;;;;2.38;1.30;;;;;;;;;;5027550;28;20542;-61
2023/08/31 13:53:42;;;;;;;2.95;1.30;;;;;;;;;;5027856;28;20441;-61
2023/08/31 13:56:09;;;;;;;3.78;1.35;;;;;;;;;;5023269;28;21020;-61
2023/08/31 13:58:36;;;;;;;2.22;1.00;;;;;;;;;;5025763;28;20469;-62
2023/08/31 14:01:03;;;;;;;2.40;1.20;;;;;;;;;;5014403;28;20540;-62
2023/08/31 14:03:30;;;;;;;1.63;1.20;;;;;;;;;;5048447;28;20480;-62
2023/08/31 14:05:58;;;;;;;2.97;1.30;;;;;;;;;;5028937;28;20431;-62
2023/08/31 14:08:25;;;;;;;2.08;1.20;;;;;;;;;;5029019;28;20438;-62
2023/08/31 14:10:54;;;;;;;3.03;1.38;;;;;;;;;;5019121;28;20488;-61
2023/08/31 14:13:22;;;;;;;2.63;1.30;;;;;;;;;;5034709;28;20433;-62
2023/08/31 14:15:49;;;;;;;3.22;1.25;;;;;;;;;;5028061;28;20470;-62
2023/08/31 14:18:16;;;;;;;4.40;1.52;;;;;;;;;;5034782;28;20793;-62
2023/08/31 14:20:44;;;;;;;3.13;1.33;;;;;;;;;;5026426;28;20546;-62
2023/08/31 14:23:11;;;;;;;2.90;1.33;;;;;;;;;;5023396;28;20435;-68
2023/08/31 14:25:38;;;;;;;3.03;1.25;;;;;;;;;;5025228;28;20462;-68
2023/08/31 14:28:05;;;;;;;1.95;1.10;;;;;;;;;;5025227;28;20447;-68
2023/08/31 14:30:32;;;;;;;3.38;1.48;;;;;;;;;;5022978;28;20430;-67
2023/08/31 14:33:00;;;;;;;3.22;1.20;;;;;;;;;;5024237;28;20435;-67
2023/08/31 14:35:27;;;;;;;3.87;1.30;;;;;;;;;;5038363;28;20444;-67
2023/08/31 14:37:55;;;;;;;2.72;1.40;;;;;;;;;;5022569;28;20521;-67
2023/08/31 14:40:24;;;;;;;3.10;1.33;;;;;;;;;;5025496;28;20497;-67
2023/08/31 14:42:52;;;;;;;4.40;1.83;;;;;;;;;;5026447;28;20433;-67
2023/08/31 14:45:22;;;;;;;2.70;1.60;;;;;;;;;;5019017;28;20439;-67
2023/08/31 14:47:49;;;;;;;2.60;1.35;;;;;;;;;;5040967;28;20439;-67
2023/08/31 14:50:16;;;;;;;2.60;1.30;;;;;;;;;;5019005;28;20956;-67
2023/08/31 14:52:43;;;;;;;2.03;1.20;;;;;;;;;;5023010;28;21208;-67